sensor_id;sensor_type;location;lat;lon;timestamp;temperature;humidity
6357;DHT22;3211;53.452;-2.264;2022-10-16T00:01:06;10.20;99.90
6357;DHT22;3211;53.452;-2.264;2022-10-16T00:03:33;10.10;99.90
6357;DHT22;3211;53.452;-2.264;2022-10-16T00:06:01;10.10;99.90
6357;DHT22;3211;53.452;-2.264;2022-10-16T00:08:30;10.00;99.90
6357;DHT22;3211;53.452;-2.264;2022-10-16T00:11:02;9.90;99.90
6357;DHT22;3211;53.452;-2.264;2022-10-16T00:13:30;9.90;99.90
6357;DHT22;3211;53.452;-2.264;2022-10-16T00:15:58;9.70;99.90
6357;DHT22;3211;53.452;-2.264;2022-10-16T00:18:26;9.60;99.90
6357;DHT22;3211;53.452;-2.264;2022-10-16T00:20:53;9.60;99.90
6357;DHT22;3211;53.452;-2.264;2022-10-16T00:23:21;9.60;99.90
6357;DHT22;3211;53.452;-2.264;2022-10-16T00:25:56;9.60;99.90
6357;DHT22;3211;53.452;-2.264;2022-10-16T00:28:23;9.60;99.90
6357;DHT22;3211;53.452;-2.264;2022-10-16T00:30:50;9.60;99.90
6357;DHT22;3211;53.452;-2.264;2022-10-16T00:33:17;9.60;99.90
6357;DHT22;3211;53.452;-2.264;2022-10-16T00:35:44;9.60;99.90
6357;DHT22;3211;53.452;-2.264;2022-10-16T00:38:11;9.60;99.90
6357;DHT22;3211;53.452;-2.264;2022-10-16T00:40:38;9.60;99.90
6357;DHT22;3211;53.452;-2.264;2022-10-16T00:43:12;9.60;99.90
6357;DHT22;3211;53.452;-2.264;2022-10-16T00:45:39;9.60;99.90
6357;DHT22;3211;53.452;-2.264;2022-10-16T00:48:11;9.60;99.90
6357;DHT22;3211;53.452;-2.264;2022-10-16T00:50:39;9.50;99.90
6357;DHT22;3211;53.452;-2.264;2022-10-16T00:53:09;9.60;99.90
6357;DHT22;3211;53.452;-2.264;2022-10-16T00:55:37;9.50;99.90
6357;DHT22;3211;53.452;-2.264;2022-10-16T00:58:04;9.50;99.90
6357;DHT22;3211;53.452;-2.264;2022-10-16T01:00:32;9.50;99.90
6357;DHT22;3211;53.452;-2.264;2022-10-16T01:03:01;9.60;99.90
6357;DHT22;3211;53.452;-2.264;2022-10-16T01:05:33;9.50;99.90
6357;DHT22;3211;53.452;-2.264;2022-10-16T01:08:08;9.50;99.90
6357;DHT22;3211;53.452;-2.264;2022-10-16T01:10:39;9.60;99.90
6357;DHT22;3211;53.452;-2.264;2022-10-16T01:13:10;9.60;99.90
6357;DHT22;3211;53.452;-2.264;2022-10-16T01:15:44;9.70;99.90
6357;DHT22;3211;53.452;-2.264;2022-10-16T01:18:16;9.70;99.90
6357;DHT22;3211;53.452;-2.264;2022-10-16T01:20:47;9.60;99.90
6357;DHT22;3211;53.452;-2.264;2022-10-16T01:23:36;9.70;99.90
6357;DHT22;3211;53.452;-2.264;2022-10-16T01:26:18;9.70;99.90
6357;DHT22;3211;53.452;-2.264;2022-10-16T01:28:52;9.70;99.90
6357;DHT22;3211;53.452;-2.264;2022-10-16T01:31:24;9.70;99.90
6357;DHT22;3211;53.452;-2.264;2022-10-16T01:33:57;9.70;99.90
6357;DHT22;3211;53.452;-2.264;2022-10-16T01:36:29;9.70;99.90
6357;DHT22;3211;53.452;-2.264;2022-10-16T01:39:00;9.70;99.90
6357;DHT22;3211;53.452;-2.264;2022-10-16T01:41:32;9.80;99.90
6357;DHT22;3211;53.452;-2.264;2022-10-16T01:44:04;9.80;99.90
6357;DHT22;3211;53.452;-2.264;2022-10-16T01:46:31;9.80;99.90
6357;DHT22;3211;53.452;-2.264;2022-10-16T01:49:00;9.80;99.90
6357;DHT22;3211;53.452;-2.264;2022-10-16T01:51:29;9.80;99.90
6357;DHT22;3211;53.452;-2.264;2022-10-16T01:53:59;9.80;99.90
6357;DHT22;3211;53.452;-2.264;2022-10-16T01:56:27;9.90;99.90
6357;DHT22;3211;53.452;-2.264;2022-10-16T01:58:57;9.90;99.90
6357;DHT22;3211;53.452;-2.264;2022-10-16T02:01:29;9.90;99.90
6357;DHT22;3211;53.452;-2.264;2022-10-16T02:03:59;9.90;99.90
6357;DHT22;3211;53.452;-2.264;2022-10-16T02:06:28;9.90;99.90
6357;DHT22;3211;53.452;-2.264;2022-10-16T02:08:55;9.90;99.90
6357;DHT22;3211;53.452;-2.264;2022-10-16T02:11:22;9.90;99.90
6357;DHT22;3211;53.452;-2.264;2022-10-16T02:13:53;9.80;99.90
6357;DHT22;3211;53.452;-2.264;2022-10-16T02:16:23;9.80;99.90
6357;DHT22;3211;53.452;-2.264;2022-10-16T02:18:54;9.80;99.90
6357;DHT22;3211;53.452;-2.264;2022-10-16T02:21:24;9.80;99.90
6357;DHT22;3211;53.452;-2.264;2022-10-16T02:24:00;9.70;99.90
6357;DHT22;3211;53.452;-2.264;2022-10-16T02:26:34;9.80;99.90
6357;DHT22;3211;53.452;-2.264;2022-10-16T02:29:07;9.80;99.90
6357;DHT22;3211;53.452;-2.264;2022-10-16T02:31:36;9.80;99.90
6357;DHT22;3211;53.452;-2.264;2022-10-16T02:34:06;9.80;99.90
6357;DHT22;3211;53.452;-2.264;2022-10-16T02:36:36;9.70;99.90
6357;DHT22;3211;53.452;-2.264;2022-10-16T02:39:04;9.70;99.90
6357;DHT22;3211;53.452;-2.264;2022-10-16T02:41:32;9.70;99.90
6357;DHT22;3211;53.452;-2.264;2022-10-16T02:43:59;9.70;99.90
6357;DHT22;3211;53.452;-2.264;2022-10-16T02:46:26;9.70;99.90
6357;DHT22;3211;53.452;-2.264;2022-10-16T02:48:53;9.70;99.90
6357;DHT22;3211;53.452;-2.264;2022-10-16T02:51:22;9.70;99.90
6357;DHT22;3211;53.452;-2.264;2022-10-16T02:53:49;9.70;99.90
6357;DHT22;3211;53.452;-2.264;2022-10-16T02:56:16;9.70;99.90
6357;DHT22;3211;53.452;-2.264;2022-10-16T02:58:43;9.60;99.90
6357;DHT22;3211;53.452;-2.264;2022-10-16T03:01:10;9.60;99.90
6357;DHT22;3211;53.452;-2.264;2022-10-16T03:03:38;9.60;99.90
6357;DHT22;3211;53.452;-2.264;2022-10-16T03:06:05;9.50;99.90
6357;DHT22;3211;53.452;-2.264;2022-10-16T03:08:33;9.40;99.90
6357;DHT22;3211;53.452;-2.264;2022-10-16T03:11:00;9.40;99.90
6357;DHT22;3211;53.452;-2.264;2022-10-16T03:13:27;9.40;99.90
6357;DHT22;3211;53.452;-2.264;2022-10-16T03:15:54;9.30;99.90
6357;DHT22;3211;53.452;-2.264;2022-10-16T03:18:21;9.30;99.90
6357;DHT22;3211;53.452;-2.264;2022-10-16T03:20:48;9.20;99.90
6357;DHT22;3211;53.452;-2.264;2022-10-16T03:23:15;9.20;99.90
6357;DHT22;3211;53.452;-2.264;2022-10-16T03:25:43;9.10;99.90
6357;DHT22;3211;53.452;-2.264;2022-10-16T03:28:10;9.10;99.90
6357;DHT22;3211;53.452;-2.264;2022-10-16T03:30:37;9.10;99.90
6357;DHT22;3211;53.452;-2.264;2022-10-16T03:33:05;9.10;99.90
6357;DHT22;3211;53.452;-2.264;2022-10-16T03:35:32;9.00;99.90
6357;DHT22;3211;53.452;-2.264;2022-10-16T03:38:00;9.00;99.90
6357;DHT22;3211;53.452;-2.264;2022-10-16T03:40:27;9.00;99.90
6357;DHT22;3211;53.452;-2.264;2022-10-16T03:42:55;9.00;99.90
6357;DHT22;3211;53.452;-2.264;2022-10-16T03:45:23;8.90;99.90
6357;DHT22;3211;53.452;-2.264;2022-10-16T03:47:50;8.90;99.90
6357;DHT22;3211;53.452;-2.264;2022-10-16T03:50:17;8.90;99.90
6357;DHT22;3211;53.452;-2.264;2022-10-16T03:52:44;8.90;99.90
6357;DHT22;3211;53.452;-2.264;2022-10-16T03:55:10;9.00;99.90
6357;DHT22;3211;53.452;-2.264;2022-10-16T03:57:37;9.00;99.90
6357;DHT22;3211;53.452;-2.264;2022-10-16T04:00:07;8.90;99.90
6357;DHT22;3211;53.452;-2.264;2022-10-16T04:02:34;8.90;99.90
6357;DHT22;3211;53.452;-2.264;2022-10-16T04:05:01;9.00;99.90
6357;DHT22;3211;53.452;-2.264;2022-10-16T04:07:28;8.90;99.90
6357;DHT22;3211;53.452;-2.264;2022-10-16T04:09:55;8.80;99.90
6357;DHT22;3211;53.452;-2.264;2022-10-16T04:12:24;8.70;99.90
6357;DHT22;3211;53.452;-2.264;2022-10-16T04:14:51;8.70;99.90
6357;DHT22;3211;53.452;-2.264;2022-10-16T04:17:19;8.70;99.90
6357;DHT22;3211;53.452;-2.264;2022-10-16T04:19:46;8.60;99.90
6357;DHT22;3211;53.452;-2.264;2022-10-16T04:22:13;8.60;99.90
6357;DHT22;3211;53.452;-2.264;2022-10-16T04:24:40;8.50;99.90
6357;DHT22;3211;53.452;-2.264;2022-10-16T04:27:07;8.40;99.90
6357;DHT22;3211;53.452;-2.264;2022-10-16T04:29:34;8.40;99.90
6357;DHT22;3211;53.452;-2.264;2022-10-16T04:32:01;8.50;99.90
6357;DHT22;3211;53.452;-2.264;2022-10-16T04:34:30;8.40;99.90
6357;DHT22;3211;53.452;-2.264;2022-10-16T04:36:56;8.40;99.90
6357;DHT22;3211;53.452;-2.264;2022-10-16T04:39:23;8.30;99.90
6357;DHT22;3211;53.452;-2.264;2022-10-16T04:41:50;8.30;99.90
6357;DHT22;3211;53.452;-2.264;2022-10-16T04:44:17;8.30;99.90
6357;DHT22;3211;53.452;-2.264;2022-10-16T04:46:44;8.40;99.90
6357;DHT22;3211;53.452;-2.264;2022-10-16T04:49:11;8.30;99.90
6357;DHT22;3211;53.452;-2.264;2022-10-16T04:51:39;8.30;99.90
6357;DHT22;3211;53.452;-2.264;2022-10-16T04:54:06;8.30;99.90
6357;DHT22;3211;53.452;-2.264;2022-10-16T04:56:52;8.30;99.90
6357;DHT22;3211;53.452;-2.264;2022-10-16T04:59:20;8.30;99.90
6357;DHT22;3211;53.452;-2.264;2022-10-16T05:01:47;8.20;99.90
6357;DHT22;3211;53.452;-2.264;2022-10-16T05:04:15;8.30;99.90
6357;DHT22;3211;53.452;-2.264;2022-10-16T05:06:43;8.20;99.90
6357;DHT22;3211;53.452;-2.264;2022-10-16T05:09:11;8.30;99.90
6357;DHT22;3211;53.452;-2.264;2022-10-16T05:11:38;8.20;99.90
6357;DHT22;3211;53.452;-2.264;2022-10-16T05:14:04;8.20;99.90
6357;DHT22;3211;53.452;-2.264;2022-10-16T05:16:32;8.10;99.90
6357;DHT22;3211;53.452;-2.264;2022-10-16T05:18:58;8.00;99.90
6357;DHT22;3211;53.452;-2.264;2022-10-16T05:21:25;8.10;99.90
6357;DHT22;3211;53.452;-2.264;2022-10-16T05:23:54;8.00;99.90
6357;DHT22;3211;53.452;-2.264;2022-10-16T05:26:21;8.00;99.90
6357;DHT22;3211;53.452;-2.264;2022-10-16T05:28:49;8.00;99.90
6357;DHT22;3211;53.452;-2.264;2022-10-16T05:31:16;8.00;99.90
6357;DHT22;3211;53.452;-2.264;2022-10-16T05:33:43;8.00;99.90
6357;DHT22;3211;53.452;-2.264;2022-10-16T05:36:10;7.90;99.90
6357;DHT22;3211;53.452;-2.264;2022-10-16T05:38:38;8.00;99.90
6357;DHT22;3211;53.452;-2.264;2022-10-16T05:41:07;7.90;99.90
6357;DHT22;3211;53.452;-2.264;2022-10-16T05:43:34;7.90;99.90
6357;DHT22;3211;53.452;-2.264;2022-10-16T05:46:03;8.00;99.90
6357;DHT22;3211;53.452;-2.264;2022-10-16T05:48:30;8.00;99.90
6357;DHT22;3211;53.452;-2.264;2022-10-16T05:50:58;7.90;99.90
6357;DHT22;3211;53.452;-2.264;2022-10-16T05:53:26;7.90;99.90
6357;DHT22;3211;53.452;-2.264;2022-10-16T05:55:54;7.90;99.90
6357;DHT22;3211;53.452;-2.264;2022-10-16T05:58:23;7.90;99.90
6357;DHT22;3211;53.452;-2.264;2022-10-16T06:00:53;7.90;99.90
6357;DHT22;3211;53.452;-2.264;2022-10-16T06:03:21;7.80;99.90
6357;DHT22;3211;53.452;-2.264;2022-10-16T06:05:48;7.90;99.90
6357;DHT22;3211;53.452;-2.264;2022-10-16T06:08:15;7.80;99.90
6357;DHT22;3211;53.452;-2.264;2022-10-16T06:10:42;7.80;99.90
6357;DHT22;3211;53.452;-2.264;2022-10-16T06:13:10;7.80;99.90
6357;DHT22;3211;53.452;-2.264;2022-10-16T06:15:39;7.80;99.90
6357;DHT22;3211;53.452;-2.264;2022-10-16T06:18:07;7.90;99.90
6357;DHT22;3211;53.452;-2.264;2022-10-16T06:20:34;7.80;99.90
6357;DHT22;3211;53.452;-2.264;2022-10-16T06:23:01;7.80;99.90
6357;DHT22;3211;53.452;-2.264;2022-10-16T06:25:29;7.80;99.90
6357;DHT22;3211;53.452;-2.264;2022-10-16T06:27:57;7.80;99.90
6357;DHT22;3211;53.452;-2.264;2022-10-16T06:30:24;7.70;99.90
6357;DHT22;3211;53.452;-2.264;2022-10-16T06:32:52;7.70;99.90
6357;DHT22;3211;53.452;-2.264;2022-10-16T06:35:19;7.80;99.90
6357;DHT22;3211;53.452;-2.264;2022-10-16T06:37:46;7.70;99.90
6357;DHT22;3211;53.452;-2.264;2022-10-16T06:40:13;7.70;99.90
6357;DHT22;3211;53.452;-2.264;2022-10-16T06:42:40;7.70;99.90
6357;DHT22;3211;53.452;-2.264;2022-10-16T06:45:08;7.70;99.90
6357;DHT22;3211;53.452;-2.264;2022-10-16T06:47:35;7.80;99.90
6357;DHT22;3211;53.452;-2.264;2022-10-16T06:50:05;7.80;99.90
6357;DHT22;3211;53.452;-2.264;2022-10-16T06:52:33;7.80;99.90
6357;DHT22;3211;53.452;-2.264;2022-10-16T06:55:00;7.70;99.90
6357;DHT22;3211;53.452;-2.264;2022-10-16T06:57:28;7.70;99.90
6357;DHT22;3211;53.452;-2.264;2022-10-16T06:59:55;7.70;99.90
6357;DHT22;3211;53.452;-2.264;2022-10-16T07:02:22;7.70;99.90
6357;DHT22;3211;53.452;-2.264;2022-10-16T07:04:49;7.70;99.90
6357;DHT22;3211;53.452;-2.264;2022-10-16T07:07:17;7.70;99.90
6357;DHT22;3211;53.452;-2.264;2022-10-16T07:09:44;7.70;99.90
6357;DHT22;3211;53.452;-2.264;2022-10-16T07:12:11;7.70;99.90
6357;DHT22;3211;53.452;-2.264;2022-10-16T07:14:38;7.80;99.90
6357;DHT22;3211;53.452;-2.264;2022-10-16T07:17:05;7.70;99.90
6357;DHT22;3211;53.452;-2.264;2022-10-16T07:19:32;7.80;99.90
6357;DHT22;3211;53.452;-2.264;2022-10-16T07:21:59;7.90;99.90
6357;DHT22;3211;53.452;-2.264;2022-10-16T07:24:27;7.90;99.90
6357;DHT22;3211;53.452;-2.264;2022-10-16T07:26:54;8.00;99.90
6357;DHT22;3211;53.452;-2.264;2022-10-16T07:29:21;7.90;99.90
6357;DHT22;3211;53.452;-2.264;2022-10-16T07:31:49;8.10;99.90
6357;DHT22;3211;53.452;-2.264;2022-10-16T07:34:17;8.00;99.90
6357;DHT22;3211;53.452;-2.264;2022-10-16T07:36:48;8.10;99.90
6357;DHT22;3211;53.452;-2.264;2022-10-16T07:39:15;8.10;99.90
6357;DHT22;3211;53.452;-2.264;2022-10-16T07:41:43;8.10;99.90
6357;DHT22;3211;53.452;-2.264;2022-10-16T07:44:10;8.20;99.90
6357;DHT22;3211;53.452;-2.264;2022-10-16T07:46:37;8.20;99.90
6357;DHT22;3211;53.452;-2.264;2022-10-16T07:49:04;8.20;99.90
6357;DHT22;3211;53.452;-2.264;2022-10-16T07:51:31;8.30;99.90
6357;DHT22;3211;53.452;-2.264;2022-10-16T07:53:58;8.30;99.90
6357;DHT22;3211;53.452;-2.264;2022-10-16T07:56:25;8.40;99.90
6357;DHT22;3211;53.452;-2.264;2022-10-16T07:58:53;8.50;99.90
6357;DHT22;3211;53.452;-2.264;2022-10-16T08:01:21;8.50;99.90
6357;DHT22;3211;53.452;-2.264;2022-10-16T08:03:50;8.50;99.90
6357;DHT22;3211;53.452;-2.264;2022-10-16T08:06:18;8.50;99.90
6357;DHT22;3211;53.452;-2.264;2022-10-16T08:08:45;8.60;99.90
6357;DHT22;3211;53.452;-2.264;2022-10-16T08:11:13;8.60;99.90
6357;DHT22;3211;53.452;-2.264;2022-10-16T08:13:40;8.70;99.90
6357;DHT22;3211;53.452;-2.264;2022-10-16T08:16:09;8.70;99.90
6357;DHT22;3211;53.452;-2.264;2022-10-16T08:18:37;8.80;99.90
6357;DHT22;3211;53.452;-2.264;2022-10-16T08:21:05;8.80;99.90
6357;DHT22;3211;53.452;-2.264;2022-10-16T08:23:33;8.90;99.90
6357;DHT22;3211;53.452;-2.264;2022-10-16T08:26:04;8.90;99.90
6357;DHT22;3211;53.452;-2.264;2022-10-16T08:28:31;8.90;99.90
6357;DHT22;3211;53.452;-2.264;2022-10-16T08:31:06;8.90;99.90
6357;DHT22;3211;53.452;-2.264;2022-10-16T08:33:34;9.00;99.90
6357;DHT22;3211;53.452;-2.264;2022-10-16T08:36:02;9.10;99.90
6357;DHT22;3211;53.452;-2.264;2022-10-16T08:38:29;9.10;99.90
6357;DHT22;3211;53.452;-2.264;2022-10-16T08:41:03;9.20;99.90
6357;DHT22;3211;53.452;-2.264;2022-10-16T08:43:44;9.30;99.90
6357;DHT22;3211;53.452;-2.264;2022-10-16T08:46:24;9.30;99.90
6357;DHT22;3211;53.452;-2.264;2022-10-16T08:48:56;9.40;99.90
6357;DHT22;3211;53.452;-2.264;2022-10-16T08:51:25;9.40;99.90
6357;DHT22;3211;53.452;-2.264;2022-10-16T08:53:56;9.50;99.90
6357;DHT22;3211;53.452;-2.264;2022-10-16T08:56:24;9.50;99.90
6357;DHT22;3211;53.452;-2.264;2022-10-16T08:58:52;9.60;99.90
6357;DHT22;3211;53.452;-2.264;2022-10-16T09:01:21;9.70;99.90
6357;DHT22;3211;53.452;-2.264;2022-10-16T09:04:20;9.80;99.90
6357;DHT22;3211;53.452;-2.264;2022-10-16T09:06:57;10.00;99.90
6357;DHT22;3211;53.452;-2.264;2022-10-16T09:09:45;10.00;99.90
6357;DHT22;3211;53.452;-2.264;2022-10-16T09:12:17;10.10;99.90
6357;DHT22;3211;53.452;-2.264;2022-10-16T09:14:56;10.30;99.90
6357;DHT22;3211;53.452;-2.264;2022-10-16T09:17:36;10.30;99.90
6357;DHT22;3211;53.452;-2.264;2022-10-16T09:20:18;10.40;99.90
6357;DHT22;3211;53.452;-2.264;2022-10-16T09:22:46;10.60;99.90
6357;DHT22;3211;53.452;-2.264;2022-10-16T09:25:15;10.60;99.90
6357;DHT22;3211;53.452;-2.264;2022-10-16T09:27:45;10.50;99.90
6357;DHT22;3211;53.452;-2.264;2022-10-16T09:30:15;10.80;99.90
6357;DHT22;3211;53.452;-2.264;2022-10-16T09:32:44;10.90;99.90
6357;DHT22;3211;53.452;-2.264;2022-10-16T09:35:16;11.00;99.90
6357;DHT22;3211;53.452;-2.264;2022-10-16T09:37:47;11.00;99.90
6357;DHT22;3211;53.452;-2.264;2022-10-16T09:40:25;11.00;99.90
6357;DHT22;3211;53.452;-2.264;2022-10-16T09:42:58;11.20;99.90
6357;DHT22;3211;53.452;-2.264;2022-10-16T09:45:27;11.20;99.90
6357;DHT22;3211;53.452;-2.264;2022-10-16T09:47:54;11.30;99.90
6357;DHT22;3211;53.452;-2.264;2022-10-16T09:50:25;11.30;99.90
6357;DHT22;3211;53.452;-2.264;2022-10-16T09:53:03;11.40;99.90
6357;DHT22;3211;53.452;-2.264;2022-10-16T09:55:31;11.40;99.90
6357;DHT22;3211;53.452;-2.264;2022-10-16T09:57:58;11.70;99.90
6357;DHT22;3211;53.452;-2.264;2022-10-16T10:00:25;11.60;99.90
6357;DHT22;3211;53.452;-2.264;2022-10-16T10:02:53;11.80;99.90
6357;DHT22;3211;53.452;-2.264;2022-10-16T10:05:23;12.00;99.90
6357;DHT22;3211;53.452;-2.264;2022-10-16T10:07:55;11.80;99.90
6357;DHT22;3211;53.452;-2.264;2022-10-16T10:10:25;11.80;99.90
6357;DHT22;3211;53.452;-2.264;2022-10-16T10:12:53;12.10;99.90
6357;DHT22;3211;53.452;-2.264;2022-10-16T10:15:20;12.10;99.90
6357;DHT22;3211;53.452;-2.264;2022-10-16T10:17:50;12.20;99.90
6357;DHT22;3211;53.452;-2.264;2022-10-16T10:20:28;12.20;99.90
6357;DHT22;3211;53.452;-2.264;2022-10-16T10:22:56;12.30;99.90
6357;DHT22;3211;53.452;-2.264;2022-10-16T10:25:35;12.60;99.90
6357;DHT22;3211;53.452;-2.264;2022-10-16T10:28:22;12.70;99.90
6357;DHT22;3211;53.452;-2.264;2022-10-16T10:30:58;12.60;99.90
6357;DHT22;3211;53.452;-2.264;2022-10-16T10:33:33;12.60;99.90
6357;DHT22;3211;53.452;-2.264;2022-10-16T10:36:16;12.80;99.90
6357;DHT22;3211;53.452;-2.264;2022-10-16T10:38:49;12.70;99.90
6357;DHT22;3211;53.452;-2.264;2022-10-16T10:44:26;13.10;99.90
6357;DHT22;3211;53.452;-2.264;2022-10-16T10:47:01;13.40;99.90
6357;DHT22;3211;53.452;-2.264;2022-10-16T10:49:39;13.20;99.90
6357;DHT22;3211;53.452;-2.264;2022-10-16T10:55:29;13.40;99.90
6357;DHT22;3211;53.452;-2.264;2022-10-16T11:01:15;13.70;99.90
6357;DHT22;3211;53.452;-2.264;2022-10-16T11:04:01;13.70;99.90
6357;DHT22;3211;53.452;-2.264;2022-10-16T11:06:34;13.80;99.90
6357;DHT22;3211;53.452;-2.264;2022-10-16T11:09:09;14.10;99.90
6357;DHT22;3211;53.452;-2.264;2022-10-16T11:11:41;14.10;99.90
6357;DHT22;3211;53.452;-2.264;2022-10-16T11:14:14;13.90;99.90
6357;DHT22;3211;53.452;-2.264;2022-10-16T11:16:48;13.90;99.90
6357;DHT22;3211;53.452;-2.264;2022-10-16T11:19:24;13.70;99.90
6357;DHT22;3211;53.452;-2.264;2022-10-16T11:21:58;13.90;99.90
6357;DHT22;3211;53.452;-2.264;2022-10-16T11:24:35;13.70;99.90
6357;DHT22;3211;53.452;-2.264;2022-10-16T11:27:08;13.90;99.90
6357;DHT22;3211;53.452;-2.264;2022-10-16T11:29:35;14.00;99.90
6357;DHT22;3211;53.452;-2.264;2022-10-16T11:32:18;14.30;99.90
6357;DHT22;3211;53.452;-2.264;2022-10-16T11:34:50;14.60;99.90
6357;DHT22;3211;53.452;-2.264;2022-10-16T11:37:21;14.50;99.90
6357;DHT22;3211;53.452;-2.264;2022-10-16T11:39:54;14.90;99.90
6357;DHT22;3211;53.452;-2.264;2022-10-16T11:42:27;14.70;99.90
6357;DHT22;3211;53.452;-2.264;2022-10-16T11:45:02;15.20;99.90
6357;DHT22;3211;53.452;-2.264;2022-10-16T11:47:36;15.50;99.90
6357;DHT22;3211;53.452;-2.264;2022-10-16T11:50:17;15.60;99.90
6357;DHT22;3211;53.452;-2.264;2022-10-16T11:52:52;15.70;99.90
6357;DHT22;3211;53.452;-2.264;2022-10-16T11:55:27;15.70;99.90
6357;DHT22;3211;53.452;-2.264;2022-10-16T11:58:00;15.40;99.90
6357;DHT22;3211;53.452;-2.264;2022-10-16T12:00:35;15.90;99.90
6357;DHT22;3211;53.452;-2.264;2022-10-16T12:03:12;16.10;99.90
6357;DHT22;3211;53.452;-2.264;2022-10-16T12:06:00;15.80;99.70
6357;DHT22;3211;53.452;-2.264;2022-10-16T12:08:33;15.20;98.40
6357;DHT22;3211;53.452;-2.264;2022-10-16T12:11:09;15.30;98.90
6357;DHT22;3211;53.452;-2.264;2022-10-16T12:13:38;15.20;98.60
6357;DHT22;3211;53.452;-2.264;2022-10-16T12:16:07;15.00;99.20
6357;DHT22;3211;53.452;-2.264;2022-10-16T12:18:46;15.20;99.90
6357;DHT22;3211;53.452;-2.264;2022-10-16T12:21:15;15.20;99.40
6357;DHT22;3211;53.452;-2.264;2022-10-16T12:23:48;15.00;99.90
6357;DHT22;3211;53.452;-2.264;2022-10-16T12:26:25;15.10;99.90
6357;DHT22;3211;53.452;-2.264;2022-10-16T12:28:53;15.40;99.90
6357;DHT22;3211;53.452;-2.264;2022-10-16T12:31:21;15.20;99.70
6357;DHT22;3211;53.452;-2.264;2022-10-16T12:33:59;15.30;99.90
6357;DHT22;3211;53.452;-2.264;2022-10-16T12:36:29;14.90;99.90
6357;DHT22;3211;53.452;-2.264;2022-10-16T12:38:56;14.70;99.90
6357;DHT22;3211;53.452;-2.264;2022-10-16T12:41:27;14.70;99.90
6357;DHT22;3211;53.452;-2.264;2022-10-16T12:43:54;14.80;99.90
6357;DHT22;3211;53.452;-2.264;2022-10-16T12:46:24;14.80;99.90
6357;DHT22;3211;53.452;-2.264;2022-10-16T12:51:57;14.60;99.90
6357;DHT22;3211;53.452;-2.264;2022-10-16T12:54:28;14.50;99.90
6357;DHT22;3211;53.452;-2.264;2022-10-16T12:57:30;14.50;99.90
6357;DHT22;3211;53.452;-2.264;2022-10-16T13:00:04;14.40;99.90
6357;DHT22;3211;53.452;-2.264;2022-10-16T13:02:54;14.30;99.90
6357;DHT22;3211;53.452;-2.264;2022-10-16T13:05:32;14.20;99.90
6357;DHT22;3211;53.452;-2.264;2022-10-16T13:08:18;14.30;99.90
6357;DHT22;3211;53.452;-2.264;2022-10-16T13:10:58;14.20;99.90
6357;DHT22;3211;53.452;-2.264;2022-10-16T13:13:45;14.20;99.90
6357;DHT22;3211;53.452;-2.264;2022-10-16T13:16:23;14.00;99.90
6357;DHT22;3211;53.452;-2.264;2022-10-16T13:19:00;14.00;99.90
6357;DHT22;3211;53.452;-2.264;2022-10-16T13:21:38;13.90;99.90
6357;DHT22;3211;53.452;-2.264;2022-10-16T13:24:19;14.00;99.90
6357;DHT22;3211;53.452;-2.264;2022-10-16T13:26:54;13.90;99.90
6357;DHT22;3211;53.452;-2.264;2022-10-16T13:29:30;13.90;99.90
6357;DHT22;3211;53.452;-2.264;2022-10-16T13:31:58;14.00;99.90
6357;DHT22;3211;53.452;-2.264;2022-10-16T13:34:25;13.80;99.90
6357;DHT22;3211;53.452;-2.264;2022-10-16T13:36:53;13.90;99.90
6357;DHT22;3211;53.452;-2.264;2022-10-16T13:39:25;13.80;99.90
6357;DHT22;3211;53.452;-2.264;2022-10-16T13:42:01;13.80;99.90
6357;DHT22;3211;53.452;-2.264;2022-10-16T13:44:36;13.80;99.90
6357;DHT22;3211;53.452;-2.264;2022-10-16T13:47:05;13.70;99.90
6357;DHT22;3211;53.452;-2.264;2022-10-16T13:49:32;13.60;99.90
6357;DHT22;3211;53.452;-2.264;2022-10-16T13:52:00;13.50;99.90
6357;DHT22;3211;53.452;-2.264;2022-10-16T13:54:27;13.60;99.90
6357;DHT22;3211;53.452;-2.264;2022-10-16T13:56:55;13.60;99.90
6357;DHT22;3211;53.452;-2.264;2022-10-16T13:59:24;13.60;99.90
6357;DHT22;3211;53.452;-2.264;2022-10-16T14:01:55;13.70;99.90
6357;DHT22;3211;53.452;-2.264;2022-10-16T14:04:23;13.60;99.90
6357;DHT22;3211;53.452;-2.264;2022-10-16T14:06:51;13.60;99.90
6357;DHT22;3211;53.452;-2.264;2022-10-16T14:09:23;13.60;99.90
6357;DHT22;3211;53.452;-2.264;2022-10-16T14:11:54;13.60;99.90
6357;DHT22;3211;53.452;-2.264;2022-10-16T14:14:23;13.60;99.90
6357;DHT22;3211;53.452;-2.264;2022-10-16T14:16:52;13.70;99.90
6357;DHT22;3211;53.452;-2.264;2022-10-16T14:19:22;13.90;99.90
6357;DHT22;3211;53.452;-2.264;2022-10-16T14:21:50;14.20;99.90
6357;DHT22;3211;53.452;-2.264;2022-10-16T14:24:32;14.50;99.90
6357;DHT22;3211;53.452;-2.264;2022-10-16T14:27:00;14.60;99.90
6357;DHT22;3211;53.452;-2.264;2022-10-16T14:29:28;15.50;99.90
6357;DHT22;3211;53.452;-2.264;2022-10-16T14:31:59;16.50;99.90
6357;DHT22;3211;53.452;-2.264;2022-10-16T14:34:29;17.30;99.10
6357;DHT22;3211;53.452;-2.264;2022-10-16T14:36:59;17.90;99.20
6357;DHT22;3211;53.452;-2.264;2022-10-16T14:39:30;18.00;98.20
6357;DHT22;3211;53.452;-2.264;2022-10-16T14:41:58;19.10;97.60
6357;DHT22;3211;53.452;-2.264;2022-10-16T14:44:29;18.80;96.20
6357;DHT22;3211;53.452;-2.264;2022-10-16T14:47:07;17.40;97.50
6357;DHT22;3211;53.452;-2.264;2022-10-16T14:49:35;16.20;99.80
6357;DHT22;3211;53.452;-2.264;2022-10-16T14:52:04;15.50;99.90
6357;DHT22;3211;53.452;-2.264;2022-10-16T14:54:31;15.10;99.90
6357;DHT22;3211;53.452;-2.264;2022-10-16T14:56:59;15.10;99.90
6357;DHT22;3211;53.452;-2.264;2022-10-16T14:59:28;15.40;99.90
6357;DHT22;3211;53.452;-2.264;2022-10-16T15:01:57;15.50;99.90
6357;DHT22;3211;53.452;-2.264;2022-10-16T15:04:25;15.70;99.90
6357;DHT22;3211;53.452;-2.264;2022-10-16T15:06:52;16.10;99.90
6357;DHT22;3211;53.452;-2.264;2022-10-16T15:09:19;15.70;99.90
6357;DHT22;3211;53.452;-2.264;2022-10-16T15:11:46;15.60;99.90
6357;DHT22;3211;53.452;-2.264;2022-10-16T15:14:13;15.40;99.90
6357;DHT22;3211;53.452;-2.264;2022-10-16T15:16:41;15.30;99.90
6357;DHT22;3211;53.452;-2.264;2022-10-16T15:19:09;15.20;99.90
6357;DHT22;3211;53.452;-2.264;2022-10-16T15:21:38;15.10;99.90
6357;DHT22;3211;53.452;-2.264;2022-10-16T15:24:11;15.00;99.90
6357;DHT22;3211;53.452;-2.264;2022-10-16T15:26:39;14.80;99.90
6357;DHT22;3211;53.452;-2.264;2022-10-16T15:29:06;14.40;99.90
6357;DHT22;3211;53.452;-2.264;2022-10-16T15:31:33;14.30;99.90
6357;DHT22;3211;53.452;-2.264;2022-10-16T15:34:00;14.40;99.90
6357;DHT22;3211;53.452;-2.264;2022-10-16T15:36:31;14.20;99.90
6357;DHT22;3211;53.452;-2.264;2022-10-16T15:39:00;14.20;99.90
6357;DHT22;3211;53.452;-2.264;2022-10-16T15:41:27;14.40;99.90
6357;DHT22;3211;53.452;-2.264;2022-10-16T15:43:54;14.50;99.90
6357;DHT22;3211;53.452;-2.264;2022-10-16T15:46:23;14.40;99.90
6357;DHT22;3211;53.452;-2.264;2022-10-16T15:48:51;14.30;99.90
6357;DHT22;3211;53.452;-2.264;2022-10-16T15:51:19;14.20;99.90
6357;DHT22;3211;53.452;-2.264;2022-10-16T15:53:46;14.10;99.90
6357;DHT22;3211;53.452;-2.264;2022-10-16T15:56:15;14.10;99.90
6357;DHT22;3211;53.452;-2.264;2022-10-16T15:58:42;14.10;99.90
6357;DHT22;3211;53.452;-2.264;2022-10-16T16:01:09;14.00;99.90
6357;DHT22;3211;53.452;-2.264;2022-10-16T16:03:38;13.90;99.90
6357;DHT22;3211;53.452;-2.264;2022-10-16T16:06:09;13.80;99.90
6357;DHT22;3211;53.452;-2.264;2022-10-16T16:08:36;13.70;99.90
6357;DHT22;3211;53.452;-2.264;2022-10-16T16:11:05;13.70;99.90
6357;DHT22;3211;53.452;-2.264;2022-10-16T16:13:34;13.60;99.90
6357;DHT22;3211;53.452;-2.264;2022-10-16T16:16:05;13.50;99.90
6357;DHT22;3211;53.452;-2.264;2022-10-16T16:18:32;13.50;99.90
6357;DHT22;3211;53.452;-2.264;2022-10-16T16:20:59;13.50;99.90
6357;DHT22;3211;53.452;-2.264;2022-10-16T16:23:26;13.40;99.90
6357;DHT22;3211;53.452;-2.264;2022-10-16T16:26:03;13.30;99.90